This is the latest recevied weather packets stored in our database for station/object DH1FR-13. If no packets are shown the sender has not sent any weather packets the latest 10 day(s).
| Time | Temp. | Humidity | Pressure | Rain* | Wind** | Luminosity | Snow |
|---|---|---|---|---|---|---|---|
| 1787860201 | 23.33° C | 72% | 1014.3 hPa | 0 mm | 0 m/s | - | - |
| 1787859601 | 23.33° C | 72% | 1014.5 hPa | 0 mm | 0 m/s | - | - |
| 1787859001 | 23.89° C | 70% | 1014.5 hPa | 0 mm | 0 m/s | - | - |
| 1787858400 | 23.33° C | 72% | 1014.3 hPa | 0 mm | 0 m/s | - | - |
| 1787857800 | 23.33° C | 73% | 1014.1 hPa | 0 mm | 0 m/s | - | - |
| 1787857201 | 23.89° C | 73% | 1014 hPa | 0 mm | 0 m/s | - | - |
| 1787856600 | 24.44° C | 71% | 1014.1 hPa | 0 mm | 0 m/s | - | - |
| 1787856001 | 24.44° C | 72% | 1014 hPa | 0 mm | 0 m/s | - | - |
| 1787855401 | 25° C | 69% | 1014 hPa | 0 mm | 0 m/s | - | - |
| 1787854801 | 25.56° C | 66% | 1014.3 hPa | 0 mm | 0 m/s | - | - |
| 1787854200 | 26.11° C | 65% | 1014.5 hPa | 0 mm | 0 m/s | - | - |
| 1787853601 | 26.67° C | 62% | 1014.4 hPa | 0 mm | 0 m/s | - | - |
| 1787853000 | 27.22° C | 60% | 1014.5 hPa | 0 mm | 0 m/s | - | - |
| 1787852401 | 27.78° C | 55% | 1014.6 hPa | 0 mm | 0 m/s | - | - |
| 1787851800 | 28.33° C | 55% | 1014.8 hPa | 0 mm | 0 m/s | - | - |
| 1787851201 | 28.89° C | 54% | 1014.6 hPa | 0 mm | 0 m/s | - | - |
| 1787850600 | 28.89° C | 51% | 1014.7 hPa | 0 mm | 0 m/s | - | - |
| 1787850000 | 29.44° C | 51% | 1014.9 hPa | 0 mm | 0 m/s | - | - |
| 1787849401 | 29.44° C | 51% | 1014.8 hPa | 0 mm | 0 m/s | - | - |
| 1787848800 | 30° C | 50% | 1015.1 hPa | 0 mm | 0 m/s | - | - |
| 1787848201 | 29.44° C | 50% | 1015 hPa | 0 mm | 0 m/s | - | - |
| 1787847600 | 29.44° C | 49% | 1015.3 hPa | 0 mm | 0 m/s | - | - |
| 1787847000 | 30° C | 49% | 1015.6 hPa | 0 mm | 0 m/s | - | - |
| 1787846400 | 30.56° C | 48% | 1015.4 hPa | 0 mm | 0 m/s | - | - |
| 1787845800 | 30° C | 48% | 1015.4 hPa | 0 mm | 0 m/s | - | - |
* Rain latest hour (hover to see other rain measurements)
** Current wind speed in m/s (hover to see current wind gust speed)